Aviation Digital Data Service (ADDS)

Output produced by METARs form (0930 UTC 07 December 2022)
found at http://www.aviationweather.gov/metar/data/
 
KGLH 070853Z AUTO 20009KT 10SM FEW060 22/18 A3011 RMK AO2 SLP201 60000 T02220183 53012
KGLH 070753Z AUTO 20011KT 10SM SCT041 OVC060 23/19 A3009 RMK AO2 SLP195 T02280189
KGLH 070653Z AUTO 20008KT 10SM BKN035 BKN042 OVC055 23/19 A3008 RMK AO2 RAB30E40 SLP192 P0000 T02280189
KGLH 070553Z AUTO 19007KT 10SM FEW037 SCT045 OVC055 22/18 A3007 RMK AO2 RAB35E50 SLP189 P0000 60000 T02170183 10228 20211 402440189 51015
KGLH 070453Z AUTO 17008KT 10SM BKN037 OVC060 22/18 A3007 RMK AO2 SLP187 T02170183
KGLH 070353Z AUTO 17007KT 10SM SCT038 OVC050 22/18 A3005 RMK AO2 SLP181 T02220178
KGLH 070253Z AUTO 17008KT 10SM OVC050 23/18 A3003 RMK AO2 SLP175 T02280178 51010
KGLH 070153Z AUTO 18010KT 10SM BKN043 OVC050 22/18 A3003 RMK AO2 SLP174 T02220183
KGLH 070053Z AUTO 18005KT 10SM BKN042 OVC055 22/18 A3002 RMK AO2 SLP171 T02170183
KGLH 062353Z 18007KT 10SM OVC050 22/18 A3000 RMK AO2 SLP165 T02220183 10244 20222 51012
KGLH 062253Z 19009KT 10SM BKN049 BKN120 23/18 A2999 RMK AO2 SLP163 T02280183
KGLH 062153Z 18008KT 10SM OVC043 23/19 A2998 RMK AO2 SLP159 T02330189
KGLH 062053Z 20012KT 10SM FEW033 OVC050 24/19 A2997 RMK AO2 SLP153 T02440189 55007
KGLH 061953Z 19011KT 10SM FEW031 FEW040 OVC047 24/19 A2996 RMK AO2 SLP151 T02440189
KGLH 061853Z 20011KT 10SM FEW031 BKN040 OVC049 24/19 A2998 RMK AO2 SLP157 T02390189
KGLH 061814Z 19012KT 10SM SCT026 BKN036 OVC043 24/19 A2998 RMK AO2 T02390189
KGLH 061753Z 20010KT 10SM BKN024 BKN030 OVC035 23/19 A2999 RMK AO2 SLP161 T02330189 10239 20194 58001
KGLH 061653Z 19015KT 10SM BKN025 BKN032 OVC047 23/19 A3000 RMK AO2 PK WND 20029/1629 SLP165 T02330189
KGLH 061619Z 20015G25KT 10SM BKN021 BKN027 BKN040 23/19 A3000 RMK AO2 T02330189
KGLH 061601Z 19017KT 10SM SCT020 23/19 A3000 RMK AO2 T02330194
KGLH 061553Z 19014KT 10SM BKN018 23/19 A3000 RMK AO2 SLP165 T02330194
KGLH 061539Z 19013G21KT 10SM BKN018 BKN055 23/19 A3000 RMK AO2 T02330194
KGLH 061453Z 18009KT 10SM OVC055 21/19 A2999 RMK AO2 SLP162 T02110189 51017
KGLH 061353Z 18008KT 10SM OVC055 21/19 A2998 RMK AO2 SLP158 T02060189
KGLH 061325Z 17008KT 10SM FEW014 SCT020 BKN055 20/18 A2997 RMK AO2 T02000183
KGLH 061318Z 17008KT 10SM SCT014 BKN020 BKN055 20/18 A2997 RMK AO2 T02000183
KGLH 061253Z 17007KT 10SM SCT018 BKN055 20/18 A2996 RMK AO2 SLP151 T02000183
KGLH 061242Z 17007KT 10SM SCT017 SCT022 BKN048 20/18 A2996 RMK AO2 T02000183
KGLH 061202Z AUTO 19007KT 10SM SCT015 BKN025 20/18 A2995 RMK AO2 T02000183
KGLH 061153Z AUTO 18007KT 10SM FEW017 SCT027 SCT042 19/18 A2995 RMK AO2 SLP146 70007 T01940183 10200 20189 53002
KGLH 061053Z AUTO 17009KT 10SM FEW018 SCT023 BKN043 19/18 A2993 RMK AO2 SLP141 T01940178
KGLH 061024Z AUTO 17007KT 10SM BKN020 BKN026 BKN043 20/18 A2993 RMK AO2 T02000183
KGLH 060953Z AUTO 17007KT 10SM FEW019 SCT027 BKN037 19/18 A2993 RMK AO2 SLP141 T01940178
KGLH 060853Z AUTO 18007KT 10SM FEW020 BKN043 BKN055 20/18 A2994 RMK AO2 SLP144 T02000183 53013
KGLH 060808Z AUTO 19008KT 10SM FEW020 OVC032 20/18 A2993 RMK AO2 T02000183
KGLH 060714Z AUTO 19008KT 10SM BKN020 OVC065 20/18 A2991 RMK AO2 T02000183
KGLH 060653Z AUTO 18008KT 10SM SCT065 19/18 A2991 RMK AO2 SLP133 T01940178
KGLH 060553Z AUTO 17007KT 10SM CLR 19/18 A2990 RMK AO2 SLP132 60000 T01940178 10200 20194 402000078 53011
KGLH 060453Z AUTO 17009KT 10SM CLR 19/18 A2989 RMK AO2 SLP128 T01940178
KGLH 060353Z AUTO 18010KT 10SM CLR 20/18 A2988 RMK AO2 SLP125 T02000178
KGLH 060253Z AUTO 19012KT 10SM CLR 20/18 A2987 RMK AO2 SLP122 60000 T02000178 51004
KGLH 060153Z AUTO 18011KT 10SM CLR 20/18 A2987 RMK AO2 SLP121 T02000178
KGLH 060053Z AUTO 18010KT 9SM CLR 20/18 A2986 RMK AO2 RAB02E08 SLP119 P0000 T02000183
KGLH 052353Z 18010KT 9SM CLR 20/18 A2986 RMK AO2 RAE19 SLP118 P0000 60002 T02000178 10200 20139 56008
KGLH 052253Z 18009KT 6SM -RA BR FEW060 BKN110 19/18 A2986 RMK AO2 RAB06E15B37 SLP119 P0000 T01940178
KGLH 052206Z 18008KT 4SM -RA BR SCT007 BKN070 19/18 A2987 RMK AO2 RAB06 P0000 T01890178
KGLH 052153Z 18007KT 3SM BR BKN007 BKN070 18/18 A2988 RMK AO2 RAE29 CIG 005V011 SLP124 P0000 T01830178
KGLH 052101Z 19008KT 3SM -RA BR OVC005 19/18 A2988 RMK AO2 P0000 T01890178
KGLH 052053Z 19008KT 3SM -RA BR OVC004 18/17 A2988 RMK AO2 RAE23B43 SLP126 P0001 60002 T01830172 56016
KGLH 052045Z 19007KT 3SM -RA BR OVC004 18/17 A2988 RMK AO2 RAE23B43 CIG 003V007 P0000 T01830172
KGLH 052026Z 18005KT 2 1/2SM BR OVC003 17/16 A2989 RMK AO2 RAE23 P0000 T01720161
KGLH 052014Z 19006KT 1 1/2SM -RA BR OVC002 17/16 A2989 RMK AO2 P0000 T01720161
KGLH 052000Z 19006KT 1/2SM -RA FG VV002 17/16 A2989 RMK AO2 P0000 T01670156
KGLH 051953Z 19007KT 1/4SM -RA FG VV002 17/16 A2989 RMK AO2 RAE1854B02E14B32 SLP128 P0001 T01670156
KGLH 051912Z 18008KT 1/4SM -RA FG VV002 16/15 A2989 RMK AO2 RAE1854B02 P0000 T01560150
KGLH 051900Z 18009KT 1/2SM FG VV002 16/14 A2990 RMK AO2 RAE1854 P0000 T01560144
KGLH 051853Z 18007KT 1/4SM -RA FG VV002 16/14 A2990 RMK AO2 RAB1754E18B38 SLP133 P0000 T01560144
KGLH 051753Z 18006KT 1/4SM FG VV002 14/13 A2993 RMK AO2 RAB37E46 SLP142 P0000 60005 T01390128 10139 20094 58023
KGLH 051709Z 18006KT 1/2SM FG VV002 13/12 A2996 RMK AO2 T01280117
KGLH 051653Z 17006KT 1/4SM FG VV002 12/11 A2997 RMK AO2 RAE00 SLP157 P0000 T01220111
KGLH 051553Z 15005KT 1/4SM -RA FG VV002 11/10 A2999 RMK AO2 LTG DSNT E RAE05B23 SLP163 P0001 T01060100
KGLH 051548Z 17003KT 1/4SM -RA FG VV002 11/10 A3000 RMK AO2 LTG DSNT E RAE05B23 P0000
KGLH 051527Z 14005KT 1/4SM VCTS -RA FG VV002 11/09 A2999 RMK AO2 RAE05B23 P0000 T01060094
KGLH 051517Z 14003KT 1/2SM FG VV003 10/09 A2999 RMK AO2 RAE05 P0000 T01000094
KGLH 051453Z 00000KT 1 1/4SM -RA BR OVC003 10/09 A3000 RMK AO2 RAB14 SLP166 P0002 60004 T01000089 51005
KGLH 051428Z 00000KT 1SM -RA BR VV003 10/09 A3000 RMK AO2 RAB14 P0000 T01000089
KGLH 051353Z 00000KT 3/4SM BR VV004 09/09 A2999 RMK AO2 RAB1259E41 SLP164 P0001 T00940089
KGLH 051327Z 00000KT 1 3/4SM -RA BR OVC003 09/08 A2999 RMK AO2 VIS 1 1/4V4 RAB1259 P0000 T00940083
KGLH 051253Z 00000KT 7SM OVC004 09/08 A3000 RMK AO2 RAB1154E07B26E44 SLP165 P0001 T00940083
KGLH 051153Z AUTO 12003KT 7SM OVC004 09/08 A2998 RMK AO2 RAB12E23 CIG 003V008 SLP161 P0000 60008 70010 T00940078 10094 20078 56021
KGLH 051140Z AUTO 12003KT 9SM OVC004 09/08 A2999 RMK AO2 RAB12E23 P0000 T00940078
KGLH 051053Z AUTO 12004KT 9SM OVC006 09/08 A2999 RMK AO2 RAB0959E11 CIG 002V010 SLP163 P0000 T00890078
KGLH 051041Z AUTO 12005KT 7SM FEW003 OVC008 09/07 A2999 RMK AO2 RAB0959E11 CIG 007V013 P0000 T00890072
KGLH 051002Z AUTO 00000KT 8SM -RA OVC004 09/07 A3002 RMK AO2 RAB0959 P0000 T00890072
KGLH 050953Z AUTO 00000KT 10SM OVC005 09/07 A3003 RMK AO2 RAE18B27E37 CIG 003V007 SLP176 P0002 T00890067
KGLH 050936Z AUTO 00000KT 7SM -RA BKN005 OVC028 08/08 A3003 RMK AO2 RAE18B27 CIG 002V007 P0002 T00830078
KGLH 050921Z AUTO 00000KT 6SM BR SCT003 SCT007 OVC029 09/07 A3002 RMK AO2 RAE18 P0002 T00890072
KGLH 050909Z AUTO 04004KT 3SM -RA BR BKN003 BKN007 OVC020 08/07 A3003 RMK AO2 P0001 T00830072
KGLH 050853Z AUTO 36004KT 2 1/2SM -RA BR BKN005 OVC020 08/07 A3004 RMK AO2 RAB05 SLP182 P0004 60006 T00830072 58011
KGLH 050831Z AUTO 00000KT 2 1/2SM -RA BR SCT004 BKN007 OVC013 08/07 A3005 RMK AO2 RAB05 P0003 T00830072
KGLH 050817Z AUTO 00000KT 2SM -RA BR FEW004 OVC013 08/07 A3005 RMK AO2 RAB05 P0001 T00830072
KGLH 050753Z AUTO 14003KT 5SM BR SCT004 BKN010 OVC042 08/07 A3005 RMK AO2 RAE26B37E50 SLP183 P0001 T00830072
KGLH 050734Z AUTO 16003KT 6SM BR FEW004 BKN010 OVC020 08/07 A3006 RMK AO2 RAE26 P0001 T00830067
KGLH 050702Z AUTO 17003KT 4SM -RA BR BKN006 OVC010 08/07 A3007 RMK AO2 P0000 T00780067
KGLH 050653Z AUTO 00000KT 3SM -RA BR SCT006 OVC011 08/07 A3008 RMK AO2 RAB15 SLP192 P0001 T00780067
KGLH 050650Z AUTO 00000KT 3SM -RA BR FEW004 OVC011 08/07 A3008 RMK AO2 RAB15 P0001
KGLH 050553Z AUTO 00000KT 5SM BR OVC012 08/06 A3009 RMK AO2 SLP198 60000 T00780061 10083 20072 400830050 58018
KGLH 050511Z AUTO 05003KT 8SM FEW006 OVC013 08/06 A3012 RMK AO2 T00780061
KGLH 050453Z AUTO 04003KT 10SM OVC013 08/06 A3012 RMK AO2 SLP208 T00830061
KGLH 050401Z AUTO 05003KT 10SM OVC014 08/06 A3013 RMK AO2 T00780056
KGLH 050353Z AUTO 00000KT 10SM OVC015 08/06 A3013 RMK AO2 SLP211 T00830061
KGLH 050253Z AUTO 06003KT 10SM OVC018 08/06 A3015 RMK AO2 RAE02 SLP217 P0000 60000 T00780056 58011
KGLH 050153Z AUTO 04003KT 10SM -RA OVC023 08/05 A3016 RMK AO2 RAB33 SLP223 P0000 T00780050
KGLH 050053Z 08003KT 10SM OVC026 07/05 A3017 RMK AO2 RAE06 SLP225 P0000 T00720050
KGLH 050043Z 09003KT 10SM OVC028 07/04 A3017 RMK AO2 RAE06 P0000 T00720044
KGLH 042353Z 08005KT 6SM RA FEW023 BKN033 OVC060 07/04 A3018 RMK AO2 RAB07 PRESFR SLP228 P0002 60002 T00720039 10083 20072 58007
KGLH 042307Z 01007KT 10SM -RA BKN023 OVC032 08/03 A3020 RMK AO2 RAB07 P0000 T00780033
KGLH 042253Z 01009KT 10SM FEW025 OVC032 08/03 A3020 RMK AO2 SLP235 T00780033
KGLH 042241Z 01008KT 10SM SCT026 OVC032 08/03 A3020 RMK AO2 T00780033
KGLH 042219Z 36010KT 10SM BKN026 OVC035 08/03 A3020 RMK AO2 T00780033
KGLH 042153Z 01008KT 10SM OVC034 08/04 A3020 RMK AO2 SLP235 T00830039
KGLH 042141Z 35009KT 10SM BKN030 OVC035 08/04 A3021 RMK AO2 T00830039
KGLH 042131Z 35007KT 10SM OVC029 08/04 A3021 RMK AO2 T00830039
KGLH 042053Z 35007KT 10SM OVC034 08/04 A3020 RMK AO2 SLP235 T00830039 55029
KGLH 041953Z 06005KT 10SM OVC039 08/04 A3019 RMK AO2 PRESFR SLP233 T00830039
KGLH 041853Z 09006KT 10SM CLR 08/03 A3022 RMK AO2 PRESFR SLP243 T00780033
KGLH 041753Z 03005KT 10SM OVC037 08/02 A3029 RMK AO2 SLP265 T00780022 10078 20050 58016
KGLH 041653Z 35004KT 10SM OVC037 07/02 A3033 RMK AO2 SLP279 T00720017
KGLH 041553Z 02006KT 10SM SCT033 OVC050 07/02 A3034 RMK AO2 SLP282 T00670017
KGLH 041453Z 05008KT 10SM BKN038 OVC047 06/01 A3033 RMK AO2 SLP281 T00610011 50006
KGLH 041353Z 03008KT 10SM OVC036 06/01 A3034 RMK AO2 SLP283 T00560006
KGLH 041325Z 03010KT 10SM SCT011 OVC035 06/01 A3033 RMK AO2 T00560006
KGLH 041253Z 36007KT 10SM OVC011 05/01 A3034 RMK AO2 SLP283 T00500006
KGLH 041216Z AUTO 01007KT 10SM OVC010 05/01 A3034 RMK AO2 CIG 007V013 T00500006
KGLH 041206Z AUTO 02007KT 10SM OVC009 05/01 A3032 RMK AO2 CIG 007V012 T00500006
KGLH 041153Z AUTO 02005KT 10SM OVC010 05/01 A3032 RMK AO2 CIG 007V012 SLP274 70003 T00500006 10061 20050 58003
KGLH 041133Z AUTO 02009KT 10SM BKN012 OVC042 05/01 A3033 RMK AO2 T00500006
KGLH 041126Z AUTO 01009KT 10SM SCT012 OVC042 05/01 A3033 RMK AO2 T00500006
KGLH 041053Z AUTO 03009KT 10SM OVC012 05/01 A3032 RMK AO2 SLP274 T00500006
KGLH 040953Z AUTO 02009KT 10SM OVC013 06/01 A3033 RMK AO2 SLP278 T00560006
KGLH 070520Z 0706/0806 19007KT P6SM OVC050 
     FM070900 19006KT P6SM VCSH OVC050 
     FM071400 21008KT P6SM OVC018 
     TEMPO 0714/0716 6SM -SHRA BR OVC012 
     FM071700 24010KT P6SM BKN022 
     FM072100 23007KT P6SM BKN060